createdAt,value
2022-12-08T04:19:16.967Z,100.00
2022-12-08T04:22:19.396Z,100.00
2022-12-08T04:25:21.488Z,100.00
2022-12-08T04:28:23.819Z,100.00
2022-12-08T04:31:26.062Z,100.00
2022-12-08T04:34:28.452Z,100.00
2022-12-08T04:37:30.564Z,100.00
2022-12-08T04:40:33.561Z,100.00
2022-12-08T04:43:36.693Z,100.00
2022-12-08T04:46:43.210Z,100.00
2022-12-08T04:49:45.773Z,100.00
2022-12-08T04:52:48.128Z,100.00
2022-12-08T04:55:50.277Z,100.00
2022-12-08T04:58:52.846Z,100.00
2022-12-08T05:01:55.018Z,100.00
2022-12-08T05:04:57.517Z,100.00
2022-12-08T05:07:59.687Z,100.00
2022-12-08T05:11:03.781Z,100.00
2022-12-08T05:14:05.875Z,100.00
2022-12-08T05:17:09.825Z,100.00
2022-12-08T05:20:12.562Z,100.00
2022-12-08T05:23:15.119Z,100.00
2022-12-08T05:26:17.277Z,100.00
2022-12-08T05:29:19.626Z,100.00
2022-12-08T05:32:21.752Z,100.00
2022-12-08T05:35:24.141Z,100.00
2022-12-08T05:38:26.256Z,100.00
2022-12-08T05:41:28.786Z,100.00
2022-12-08T05:44:30.881Z,100.00
2022-12-08T05:47:36.234Z,100.00
2022-12-08T05:50:38.581Z,100.00
2022-12-08T05:53:40.898Z,100.00
2022-12-08T05:56:43.028Z,100.00
2022-12-08T05:59:45.459Z,100.00
2022-12-08T06:02:47.725Z,100.00
2022-12-08T06:05:50.528Z,100.00
2022-12-08T06:08:53.316Z,100.00
2022-12-08T06:11:55.712Z,100.00
2022-12-08T06:14:57.753Z,100.00
2022-12-08T06:18:00.126Z,100.00
2022-12-08T06:21:13.413Z,100.00
2022-12-08T06:24:16.228Z,100.00
2022-12-08T06:27:18.268Z,100.00
2022-12-08T06:30:20.646Z,100.00
2022-12-08T06:33:22.927Z,100.00
2022-12-08T06:36:27.820Z,100.00
2022-12-08T06:39:29.949Z,100.00
2022-12-08T06:42:44.618Z,100.00
2022-12-08T06:45:46.793Z,100.00
2022-12-08T06:48:50.691Z,100.00
2022-12-08T06:51:52.794Z,100.00
2022-12-08T06:54:55.108Z,100.00
2022-12-08T06:57:57.304Z,100.00
2022-12-08T07:01:05.619Z,100.00
2022-12-08T07:04:07.923Z,100.00
2022-12-08T07:07:10.318Z,100.00
2022-12-08T07:10:12.656Z,100.00
2022-12-08T07:13:15.032Z,100.00
2022-12-08T07:16:17.204Z,100.00
2022-12-08T07:19:19.921Z,100.00
2022-12-08T07:22:22.027Z,100.00
2022-12-08T07:25:24.410Z,100.00
2022-12-08T07:28:26.482Z,100.00
2022-12-08T07:31:28.995Z,100.00
2022-12-08T07:34:31.215Z,100.00
2022-12-08T07:37:34.902Z,100.00
2022-12-08T07:40:38.669Z,100.00
2022-12-08T07:43:42.521Z,100.00
2022-12-08T07:46:44.646Z,100.00
2022-12-08T07:49:47.091Z,100.00
2022-12-08T07:52:49.184Z,100.00
2022-12-08T07:55:51.560Z,100.00
2022-12-08T07:58:53.703Z,100.00
2022-12-08T08:02:13.416Z,99.00
2022-12-08T08:05:18.555Z,96.92
2022-12-08T08:08:20.824Z,95.82
2022-12-08T08:11:24.284Z,95.87
2022-12-08T08:14:26.359Z,91.43
2022-12-08T08:17:29.747Z,90.87
2022-12-08T08:20:32.161Z,90.99
2022-12-08T08:23:34.979Z,89.83
2022-12-08T08:26:37.754Z,87.82
2022-12-08T08:29:40.101Z,88.88
2022-12-08T08:32:42.729Z,88.81
2022-12-08T08:35:45.057Z,88.26
2022-12-08T08:38:47.166Z,88.14
2022-12-08T08:41:49.691Z,88.25
2022-12-08T08:44:51.791Z,86.26
2022-12-08T08:47:54.311Z,86.71
2022-12-08T08:50:57.190Z,84.84
2022-12-08T08:53:59.684Z,86.41
2022-12-08T08:57:01.919Z,85.59
2022-12-08T09:00:06.486Z,85.60
2022-12-08T09:03:08.710Z,86.79
2022-12-08T09:06:11.726Z,82.20
2022-12-08T09:09:14.529Z,83.85
2022-12-08T09:12:17.093Z,84.26
2022-12-08T09:15:20.684Z,83.92
2022-12-08T09:18:23.052Z,81.37
2022-12-08T09:21:26.367Z,81.33
2022-12-08T09:24:28.729Z,82.96
2022-12-08T09:27:31.207Z,84.57
2022-12-08T09:30:33.582Z,84.30
2022-12-08T09:33:35.765Z,84.62
2022-12-08T09:36:38.378Z,83.06
2022-12-08T09:39:40.544Z,85.87
2022-12-08T09:42:51.282Z,84.71
2022-12-08T09:45:55.043Z,83.06
2022-12-08T09:49:00.157Z,82.42
2022-12-08T09:52:03.029Z,81.71
2022-12-08T09:55:16.623Z,82.25
2022-12-08T09:58:47.668Z,83.23
2022-12-08T10:01:50.937Z,81.26
2022-12-08T10:04:55.738Z,81.68
2022-12-08T10:08:25.068Z,80.53
2022-12-08T10:11:44.516Z,79.88
2022-12-08T10:15:17.413Z,81.01
2022-12-08T10:18:24.979Z,81.74
2022-12-08T10:21:30.195Z,81.71
2022-12-08T10:24:41.145Z,80.99
2022-12-08T10:27:43.436Z,80.84
2022-12-08T10:30:45.768Z,77.81
2022-12-08T10:33:54.557Z,77.26
2022-12-08T10:36:59.168Z,76.69
2022-12-08T10:40:17.736Z,76.57
2022-12-08T10:43:25.577Z,75.00
2022-12-08T10:46:29.119Z,73.58
2022-12-08T10:49:35.917Z,72.68
2022-12-08T10:52:40.240Z,72.04
2022-12-08T10:56:05.621Z,73.04
2022-12-08T10:59:17.237Z,72.74
2022-12-08T11:02:20.421Z,73.21
2022-12-08T11:05:25.985Z,72.88
2022-12-08T11:08:29.720Z,73.59
2022-12-08T11:11:44.961Z,74.87
2022-12-08T11:14:57.183Z,75.62
2022-12-08T11:18:28.413Z,75.25
2022-12-08T11:21:37.182Z,76.43
2022-12-08T11:24:39.264Z,78.48
2022-12-08T11:27:44.943Z,77.37
2022-12-08T11:30:54.722Z,75.43
2022-12-08T11:33:57.547Z,76.01
2022-12-08T11:36:59.782Z,74.49
2022-12-08T11:40:07.877Z,73.57
2022-12-08T11:43:39.019Z,73.78
2022-12-08T11:46:50.745Z,75.50
2022-12-08T11:50:18.045Z,75.68
2022-12-08T11:53:37.219Z,74.72
2022-12-08T11:56:44.682Z,75.29
2022-12-08T11:59:51.975Z,73.32
2022-12-08T12:03:07.592Z,72.32
2022-12-08T12:10:22.482Z,73.03
2022-12-08T12:13:53.452Z,72.13
2022-12-08T12:17:07.720Z,71.71
2022-12-08T12:20:27.859Z,72.55
2022-12-08T12:23:38.444Z,71.58
2022-12-08T12:26:53.776Z,72.58
2022-12-08T12:30:01.789Z,74.66
2022-12-08T12:33:08.650Z,72.40
2022-12-08T12:36:12.613Z,72.57
2022-12-08T12:39:18.176Z,72.02
2022-12-08T12:42:49.173Z,72.67
2022-12-08T12:46:23.790Z,73.36
2022-12-08T12:49:43.547Z,72.88
2022-12-08T12:52:47.021Z,72.78
2022-12-08T12:55:53.848Z,74.14
2022-12-08T12:58:56.230Z,72.70
2022-12-08T13:01:58.501Z,73.93
2022-12-08T13:05:15.707Z,74.77
2022-12-08T13:08:23.841Z,75.13
2022-12-08T13:11:26.454Z,76.48
2022-12-08T13:14:35.166Z,75.90
2022-12-08T13:17:38.508Z,75.15
2022-12-08T13:20:46.060Z,76.67
2022-12-08T13:24:14.182Z,76.85
2022-12-08T13:27:16.179Z,75.94
2022-12-08T13:30:48.096Z,78.30
2022-12-08T13:33:50.777Z,77.17
2022-12-08T13:37:13.847Z,77.37
2022-12-08T13:40:24.031Z,75.80
2022-12-08T13:43:45.079Z,79.36
2022-12-08T13:47:17.254Z,82.68
2022-12-08T13:57:16.934Z,89.90
2022-12-08T14:00:21.402Z,90.27
2022-12-08T14:03:23.960Z,90.93
2022-12-08T14:06:30.797Z,91.39
2022-12-08T14:09:37.203Z,90.65
2022-12-08T14:12:43.372Z,90.58
2022-12-08T14:15:45.813Z,91.55
2022-12-08T14:18:51.118Z,91.60
2022-12-08T14:22:18.680Z,92.24
2022-12-08T14:25:22.729Z,90.71
2022-12-08T14:28:25.619Z,88.85
2022-12-08T14:31:28.867Z,89.26
2022-12-08T14:34:40.327Z,88.96
2022-12-08T14:37:44.592Z,88.28
2022-12-08T14:40:49.931Z,88.80
2022-12-08T14:44:01.048Z,89.39
2022-12-08T14:47:09.301Z,90.13
2022-12-08T14:50:36.102Z,90.71
2022-12-08T14:53:43.236Z,90.99
2022-12-08T14:56:53.161Z,92.50
2022-12-08T14:59:55.583Z,92.21
2022-12-08T15:02:57.838Z,93.59
2022-12-08T15:06:06.632Z,93.32
2022-12-08T15:09:27.092Z,94.10
2022-12-08T15:12:31.799Z,93.28
2022-12-08T15:15:57.951Z,94.85
2022-12-08T15:19:27.787Z,93.81
2022-12-08T15:22:31.075Z,93.21
2022-12-08T15:25:33.790Z,93.26
2022-12-08T15:28:35.910Z,93.39
2022-12-08T15:31:38.557Z,93.26
2022-12-08T15:34:40.787Z,93.43
2022-12-08T15:37:43.133Z,93.99
2022-12-08T15:40:45.188Z,93.45
2022-12-08T15:43:47.524Z,93.45
2022-12-08T15:46:50.104Z,93.61
2022-12-08T15:49:53.043Z,92.85
2022-12-08T15:52:55.159Z,92.74
2022-12-08T15:56:26.373Z,90.89
2022-12-08T15:59:23.490Z,91.73
2022-12-08T16:02:34.330Z,90.64
2022-12-08T16:06:10.187Z,89.58
2022-12-08T16:09:30.091Z,89.23
2022-12-08T16:16:13.849Z,89.58
2022-12-08T16:19:16.336Z,89.87
